createdAt,value
2022-11-28T00:02:50.955Z,14.70
2022-11-28T00:06:12.927Z,14.97
2022-11-28T00:09:35.729Z,15.80
2022-11-28T00:12:57.498Z,15.33
2022-11-28T00:16:22.315Z,15.47
2022-11-28T00:19:44.139Z,15.77
2022-11-28T00:23:06.002Z,16.03
2022-11-28T00:26:31.650Z,15.20
2022-11-28T00:29:56.909Z,15.27
2022-11-28T00:33:18.920Z,15.13
2022-11-28T00:36:40.774Z,14.93
2022-11-28T00:40:02.273Z,15.83
2022-11-28T00:43:25.546Z,15.20
2022-11-28T00:46:47.222Z,14.57
2022-11-28T00:50:10.941Z,13.53
2022-11-28T00:53:32.874Z,15.20
2022-11-28T00:56:54.763Z,13.97
2022-11-28T01:00:19.521Z,13.97
2022-11-28T01:03:41.124Z,15.33
2022-11-28T01:07:03.422Z,15.00
2022-11-28T01:10:25.350Z,15.37
2022-11-28T01:13:46.614Z,14.87
2022-11-28T01:17:09.754Z,14.90
2022-11-28T01:20:31.396Z,15.30
2022-11-28T01:23:53.197Z,15.37
2022-11-28T01:27:14.642Z,13.83
2022-11-28T01:30:36.453Z,14.40
2022-11-28T01:33:59.912Z,14.57
2022-11-28T01:37:21.395Z,14.30
2022-11-28T01:40:46.187Z,14.57
2022-11-28T01:44:30.142Z,14.57
2022-11-28T01:47:54.838Z,14.67
2022-11-28T01:51:18.409Z,15.50
2022-11-28T01:54:43.568Z,15.27
2022-11-28T01:58:06.655Z,15.23
2022-11-28T02:01:28.616Z,14.53
2022-11-28T02:04:51.870Z,14.90
2022-11-28T02:08:14.910Z,14.73
2022-11-28T02:11:51.126Z,15.97
2022-11-28T02:15:24.918Z,15.07
2022-11-28T02:18:58.403Z,15.40
2022-11-28T02:22:23.869Z,14.53
2022-11-28T02:26:22.723Z,14.23
2022-11-28T02:30:20.967Z,14.67
2022-11-28T02:33:50.069Z,15.13
2022-11-28T02:37:18.654Z,14.70
2022-11-28T02:40:50.521Z,14.97
2022-11-28T02:44:17.054Z,15.07
2022-11-28T02:47:42.197Z,15.33
2022-11-28T02:51:11.440Z,14.57
2022-11-28T02:54:33.782Z,14.53
2022-11-28T02:57:56.573Z,15.37
2022-11-28T03:01:22.267Z,15.37
2022-11-28T03:04:51.645Z,14.70
2022-11-28T03:08:32.191Z,14.37
2022-11-28T03:12:05.182Z,14.63
2022-11-28T03:15:38.003Z,13.63
2022-11-28T03:19:07.690Z,14.67
2022-11-28T03:22:35.467Z,13.67
2022-11-28T03:26:01.605Z,14.33
2022-11-28T03:29:28.119Z,15.57
2022-11-28T03:32:53.627Z,13.40
2022-11-28T03:36:21.000Z,13.77
2022-11-28T03:39:47.616Z,15.03
2022-11-28T03:43:14.738Z,13.80
2022-11-28T03:46:39.487Z,14.00
2022-11-28T03:50:06.064Z,14.57
2022-11-28T03:53:32.499Z,14.53
2022-11-28T03:57:01.570Z,14.00
2022-11-28T04:00:25.731Z,14.47
2022-11-28T04:03:54.671Z,14.40
2022-11-28T04:07:24.718Z,14.33
2022-11-28T04:10:53.903Z,14.40
2022-11-28T04:14:23.323Z,14.73
2022-11-28T04:17:52.384Z,13.73
2022-11-28T04:21:20.914Z,13.37
2022-11-28T04:24:48.127Z,13.60
2022-11-28T04:28:15.221Z,13.63
2022-11-28T04:31:39.386Z,13.57
2022-11-28T04:35:05.953Z,13.73
2022-11-28T04:38:30.527Z,14.20
2022-11-28T04:41:55.654Z,13.47
2022-11-28T04:45:20.966Z,13.87
2022-11-28T04:48:43.399Z,13.80
2022-11-28T04:52:10.961Z,13.90
2022-11-28T04:55:39.463Z,13.80
2022-11-28T04:59:02.191Z,14.33
2022-11-28T05:02:25.903Z,14.60
2022-11-28T05:05:49.930Z,14.23
2022-11-28T05:09:14.776Z,14.77
2022-11-28T05:12:36.574Z,14.17
2022-11-28T05:16:01.193Z,14.23
2022-11-28T05:19:23.303Z,13.97
2022-11-28T05:22:45.046Z,14.43
2022-11-28T05:26:10.166Z,14.53
2022-11-28T05:29:32.002Z,15.77
2022-11-28T05:32:54.122Z,14.57
2022-11-28T05:36:17.444Z,14.77
2022-11-28T05:39:39.224Z,14.87
2022-11-28T05:43:02.483Z,15.30
2022-11-28T05:46:24.399Z,14.23
2022-11-28T05:49:48.402Z,15.07
2022-11-28T05:53:10.814Z,15.80
2022-11-28T05:56:34.349Z,14.43
2022-11-28T05:59:59.044Z,14.37
2022-11-28T06:03:20.991Z,15.93
2022-11-28T06:06:43.058Z,14.43
2022-11-28T06:10:05.110Z,15.47
2022-11-28T06:13:27.977Z,15.77
2022-11-28T06:16:51.036Z,15.00
2022-11-28T06:20:12.941Z,14.33
2022-11-28T06:23:35.312Z,14.90
2022-11-28T06:26:56.880Z,14.10
2022-11-28T06:30:18.934Z,15.03
2022-11-28T06:33:42.659Z,14.73
2022-11-28T06:37:04.522Z,14.97
2022-11-28T06:40:26.544Z,14.47
2022-11-28T06:43:48.200Z,15.17
2022-11-28T06:47:09.784Z,15.77
2022-11-28T06:50:33.964Z,14.70
2022-11-28T06:53:55.586Z,15.13
2022-11-28T06:57:17.384Z,15.10
2022-11-28T07:00:39.538Z,15.13
2022-11-28T07:04:02.018Z,15.40
2022-11-28T07:07:25.333Z,15.20
2022-11-28T07:10:47.047Z,16.17
2022-11-28T07:14:08.899Z,16.00
2022-11-28T07:17:30.562Z,16.10
2022-11-28T07:20:52.519Z,16.00
2022-11-28T07:24:15.406Z,16.43
2022-11-28T07:27:37.038Z,17.93
2022-11-28T07:31:04.255Z,16.13
2022-11-28T07:34:26.166Z,17.40
2022-11-28T07:37:48.115Z,17.13
2022-11-28T07:41:12.833Z,19.40
2022-11-28T07:44:34.882Z,18.97
2022-11-28T07:47:56.291Z,17.87
2022-11-28T07:51:21.034Z,16.93
2022-11-28T07:54:43.023Z,16.73
2022-11-28T07:58:06.688Z,17.90
2022-11-28T08:01:32.850Z,18.37
2022-11-28T08:04:55.463Z,16.77
2022-11-28T08:08:18.293Z,18.03
2022-11-28T08:11:41.321Z,18.60
2022-11-28T08:15:04.881Z,18.27
2022-11-28T08:18:26.550Z,19.50
2022-11-28T08:21:48.889Z,17.80
2022-11-28T08:25:11.198Z,17.40
2022-11-28T08:28:33.327Z,17.40
2022-11-28T08:31:56.302Z,17.07
2022-11-28T08:35:18.240Z,16.60
2022-11-28T08:38:40.467Z,17.77
2022-11-28T08:42:02.370Z,18.60
2022-11-28T08:45:23.915Z,19.23
2022-11-28T08:48:47.743Z,18.67
2022-11-28T08:52:09.713Z,20.57
2022-11-28T08:55:33.302Z,19.13
2022-11-28T08:58:56.559Z,19.47
2022-11-28T09:02:20.830Z,19.13
2022-11-28T09:05:48.565Z,20.67
2022-11-28T09:09:10.245Z,20.17
2022-11-28T09:12:32.229Z,19.60
2022-11-28T09:15:55.013Z,20.03
2022-11-28T09:19:16.859Z,19.77
2022-11-28T09:22:40.794Z,18.23
2022-11-28T09:26:02.386Z,19.70
2022-11-28T09:29:24.243Z,18.23
2022-11-28T09:32:49.359Z,18.63
2022-11-28T09:36:13.984Z,20.63
2022-11-28T09:39:50.550Z,19.50
2022-11-28T09:43:24.723Z,18.87
2022-11-28T09:46:49.127Z,19.33
2022-11-28T09:50:15.480Z,20.33
2022-11-28T09:53:43.038Z,20.17
2022-11-28T09:57:14.039Z,20.23
2022-11-28T10:00:38.846Z,21.53
2022-11-28T10:04:05.404Z,21.23
2022-11-28T10:07:34.317Z,21.03
2022-11-28T10:11:03.541Z,21.57
2022-11-28T10:14:51.087Z,21.30
2022-11-28T10:18:27.287Z,21.87
2022-11-28T10:21:59.003Z,22.87
2022-11-28T10:25:25.554Z,21.83
2022-11-28T10:28:51.260Z,21.80
2022-11-28T10:32:19.905Z,22.30
2022-11-28T10:35:48.903Z,21.30
2022-11-28T10:39:13.726Z,21.60
2022-11-28T10:42:43.201Z,21.93
2022-11-28T10:46:30.146Z,20.70
2022-11-28T10:50:02.617Z,21.80
2022-11-28T10:53:36.279Z,22.13
2022-11-28T10:57:05.230Z,21.60
2022-11-28T11:00:26.772Z,24.00
2022-11-28T11:03:49.221Z,27.07
2022-11-28T11:07:22.792Z,23.63
2022-11-28T11:10:50.598Z,23.30
2022-11-28T11:14:12.752Z,23.23
2022-11-28T11:17:37.787Z,23.73
2022-11-28T11:21:10.142Z,23.07
2022-11-28T11:24:34.393Z,24.20
2022-11-28T11:27:57.760Z,22.93
2022-11-28T11:31:23.553Z,22.77
2022-11-28T11:34:47.000Z,22.70
2022-11-28T11:38:27.521Z,21.47
2022-11-28T11:41:53.664Z,22.67
2022-11-28T11:45:30.658Z,22.23
2022-11-28T11:48:54.355Z,22.30
2022-11-28T11:52:22.210Z,22.37
2022-11-28T11:55:49.179Z,22.40
2022-11-28T11:59:17.899Z,22.13
2022-11-28T12:02:44.667Z,21.77
2022-11-28T12:06:14.655Z,21.83
2022-11-28T12:09:41.818Z,20.97
2022-11-28T12:13:04.782Z,21.80
2022-11-28T12:16:45.292Z,21.77
2022-11-28T12:20:26.710Z,22.90
2022-11-28T12:24:05.992Z,21.77
2022-11-28T12:27:44.565Z,22.00
2022-11-28T12:31:17.171Z,22.93
2022-11-28T12:34:51.472Z,22.60
2022-11-28T12:38:32.748Z,22.43
2022-11-28T12:42:34.054Z,23.13
2022-11-28T12:46:03.879Z,22.93
2022-11-28T12:49:36.699Z,22.27
2022-11-28T12:53:19.549Z,25.27
2022-11-28T12:56:51.566Z,26.40
2022-11-28T13:00:18.458Z,27.67
2022-11-28T13:03:51.836Z,25.27
2022-11-28T13:07:23.942Z,26.77
2022-11-28T13:10:55.108Z,26.83
2022-11-28T13:14:27.860Z,25.77
2022-11-28T13:17:56.867Z,26.57
2022-11-28T13:21:28.797Z,26.07
2022-11-28T13:24:56.766Z,24.50
2022-11-28T13:28:26.267Z,26.07
2022-11-28T13:31:56.128Z,24.23
2022-11-28T13:35:22.948Z,24.73
2022-11-28T13:39:11.826Z,24.20
2022-11-28T13:43:02.957Z,25.23
2022-11-28T13:46:26.903Z,23.00
2022-11-28T13:49:48.921Z,24.90
2022-11-28T13:53:24.648Z,23.90
2022-11-28T13:56:47.808Z,25.03
2022-11-28T14:00:23.162Z,24.13
2022-11-28T14:03:50.244Z,24.67
2022-11-28T14:07:26.258Z,24.07
2022-11-28T14:11:21.342Z,23.13
2022-11-28T14:15:09.867Z,22.43
2022-11-28T14:18:58.794Z,21.10
2022-11-28T14:22:33.828Z,20.27
2022-11-28T14:25:57.100Z,20.53
2022-11-28T14:29:24.052Z,19.83
2022-11-28T14:32:45.878Z,19.87
2022-11-28T14:36:28.826Z,19.50
2022-11-28T14:39:52.775Z,17.93
2022-11-28T14:43:28.070Z,19.13
2022-11-28T14:47:15.331Z,18.37
2022-11-28T14:50:54.582Z,18.10
2022-11-28T14:54:24.036Z,18.03
2022-11-28T14:57:56.699Z,19.00
2022-11-28T15:01:26.418Z,18.37
2022-11-28T15:04:59.967Z,19.17
2022-11-28T15:08:35.438Z,19.93
2022-11-28T15:12:12.555Z,19.50
2022-11-28T15:15:36.059Z,18.97
2022-11-28T15:19:06.052Z,19.53
2022-11-28T15:22:32.055Z,19.30
2022-11-28T15:25:55.107Z,18.67
2022-11-28T15:29:21.372Z,19.00
2022-11-28T15:32:45.094Z,19.03
2022-11-28T15:36:17.455Z,19.10
2022-11-28T15:39:42.261Z,19.70
2022-11-28T15:43:12.497Z,18.97
2022-11-28T15:46:35.547Z,18.67
2022-11-28T15:50:05.554Z,18.87
2022-11-28T15:53:27.587Z,18.70
2022-11-28T15:56:57.673Z,20.43
2022-11-28T16:00:21.995Z,21.20
2022-11-28T16:03:51.007Z,20.57
2022-11-28T16:07:17.141Z,20.03
2022-11-28T16:10:39.389Z,22.20
2022-11-28T16:14:09.482Z,20.77
2022-11-28T16:17:34.502Z,21.80
2022-11-28T16:20:58.384Z,22.17
2022-11-28T16:24:27.197Z,21.20
2022-11-28T16:27:54.413Z,23.00
2022-11-28T16:31:23.782Z,22.63
2022-11-28T16:34:47.045Z,24.90
2022-11-28T16:38:17.470Z,24.40
2022-11-28T16:41:42.456Z,24.90
2022-11-28T16:45:12.358Z,27.00
2022-11-28T16:48:36.150Z,27.47
2022-11-28T16:52:39.074Z,27.63
2022-11-28T16:56:00.778Z,27.80
2022-11-28T16:59:25.686Z,27.57
2022-11-28T17:02:47.223Z,28.97
2022-11-28T17:06:16.839Z,29.90
2022-11-28T17:09:38.509Z,27.63
2022-11-28T17:13:00.422Z,26.93
2022-11-28T17:16:25.388Z,28.37
2022-11-28T17:19:47.619Z,27.90
2022-11-28T17:23:08.974Z,28.67
2022-11-28T17:26:30.976Z,28.87
2022-11-28T17:29:52.861Z,28.10
2022-11-28T17:33:17.447Z,27.00
2022-11-28T17:36:39.251Z,28.30
2022-11-28T17:40:17.844Z,28.27
2022-11-28T17:43:39.577Z,29.40
2022-11-28T17:47:03.026Z,28.90
2022-11-28T17:50:26.186Z,27.87
2022-11-28T17:53:47.714Z,28.50
2022-11-28T17:57:10.717Z,29.17
2022-11-28T18:00:34.121Z,28.47
2022-11-28T18:03:56.149Z,28.80
2022-11-28T18:07:19.572Z,28.33
2022-11-28T18:10:41.880Z,28.50
2022-11-28T18:14:03.946Z,28.67
2022-11-28T18:17:26.025Z,28.33
2022-11-28T18:20:47.721Z,27.13
2022-11-28T18:24:11.138Z,28.43
2022-11-28T18:27:33.048Z,28.80
2022-11-28T18:30:54.978Z,27.40
2022-11-28T18:34:17.000Z,27.70
2022-11-28T18:37:39.749Z,27.83
2022-11-28T18:41:06.985Z,28.83
2022-11-28T18:44:29.192Z,28.13
2022-11-28T18:47:52.188Z,28.07
2022-11-28T18:51:18.631Z,28.07
2022-11-28T18:54:40.859Z,28.83
2022-11-28T18:58:03.851Z,28.37
2022-11-28T19:01:30.252Z,28.47
2022-11-28T19:04:52.637Z,27.70
2022-11-28T19:08:14.793Z,28.30
2022-11-28T19:11:38.162Z,28.07
2022-11-28T19:15:02.983Z,28.77
2022-11-28T19:18:24.773Z,28.47
2022-11-28T19:21:48.239Z,28.47
2022-11-28T19:25:10.410Z,28.07
2022-11-28T19:28:32.915Z,28.90
2022-11-28T19:31:56.510Z,28.73
2022-11-28T19:35:18.282Z,28.67
2022-11-28T19:38:40.433Z,28.30
2022-11-28T19:42:02.542Z,28.20
2022-11-28T19:45:24.661Z,29.60
2022-11-28T19:48:48.273Z,28.47
2022-11-28T19:52:10.137Z,30.30
2022-11-28T19:55:31.832Z,27.77
2022-11-28T19:58:54.091Z,29.30
2022-11-28T20:02:15.850Z,28.73
2022-11-28T20:05:41.647Z,29.47
2022-11-28T20:09:08.847Z,28.70
2022-11-28T20:12:34.658Z,28.93
2022-11-28T20:15:56.422Z,29.47
2022-11-28T20:19:18.492Z,28.33
2022-11-28T20:22:42.185Z,29.07
2022-11-28T20:26:05.789Z,28.03
2022-11-28T20:29:28.047Z,28.90
2022-11-28T20:32:49.685Z,28.70
2022-11-28T20:36:14.894Z,28.17
2022-11-28T20:39:39.621Z,28.13
2022-11-28T20:43:01.295Z,27.93
2022-11-28T20:46:25.224Z,27.07
2022-11-28T20:49:47.221Z,27.47
2022-11-28T20:53:09.322Z,28.07
2022-11-28T20:56:51.706Z,27.50
2022-11-28T21:00:16.987Z,28.00
2022-11-28T21:03:38.927Z,28.43
2022-11-28T21:07:00.663Z,27.33
2022-11-28T21:10:23.114Z,26.83
2022-11-28T21:13:46.705Z,27.53
2022-11-28T21:17:08.616Z,27.27
2022-11-28T21:20:30.422Z,26.60
2022-11-28T21:23:52.407Z,27.00
2022-11-28T21:27:14.064Z,28.03
2022-11-28T21:30:43.250Z,27.87
2022-11-28T21:34:04.991Z,26.83
2022-11-28T21:37:26.618Z,27.47
2022-11-28T21:40:54.181Z,26.47
2022-11-28T21:44:15.863Z,26.70
2022-11-28T21:47:39.364Z,28.17
2022-11-28T21:51:01.763Z,27.27
2022-11-28T21:54:23.455Z,27.63
2022-11-28T21:57:44.992Z,27.47
2022-11-28T22:01:08.645Z,27.30
2022-11-28T22:04:33.761Z,26.97
2022-11-28T22:07:55.529Z,27.27
2022-11-28T22:11:17.563Z,27.30
2022-11-28T22:14:39.538Z,27.03
2022-11-28T22:18:01.170Z,26.40
2022-11-28T22:25:08.850Z,27.63
2022-11-28T22:28:32.979Z,28.30
2022-11-28T22:31:55.475Z,28.73
2022-11-28T22:35:18.010Z,27.50
2022-11-28T22:38:42.596Z,27.10
2022-11-28T22:42:04.606Z,26.83
2022-11-28T22:45:27.444Z,29.10
2022-11-28T22:48:50.615Z,26.60
2022-11-28T22:52:12.702Z,26.87
2022-11-28T22:55:37.378Z,27.27
2022-11-28T22:58:59.885Z,26.80
2022-11-28T23:02:22.948Z,26.40
2022-11-28T23:05:49.100Z,26.47
2022-11-28T23:09:14.668Z,25.30
2022-11-28T23:12:37.564Z,26.60
2022-11-28T23:16:09.830Z,26.60
2022-11-28T23:19:32.150Z,26.30
2022-11-28T23:22:54.658Z,25.97
2022-11-28T23:26:19.504Z,26.57
2022-11-28T23:29:43.490Z,26.40
2022-11-28T23:33:05.235Z,26.43
2022-11-28T23:36:28.736Z,26.77
2022-11-28T23:39:50.602Z,26.30
2022-11-28T23:43:12.490Z,26.57
2022-11-28T23:46:36.625Z,26.83
2022-11-28T23:49:58.554Z,27.87
2022-11-28T23:53:20.006Z,26.50
2022-11-28T23:56:42.813Z,26.47
